Time;durP1;ratioP1;P1;durP2;ratioP2;P2;SDS_P1;SDS_P2;PMS_P1;PMS_P2;Temp;Humidity;BMP_temperature;BMP_pressure;BME280_temperature;BME280_humidity;BME280_pressure;Samples;Min_cycle;Max_cycle;Signal;HPM_P1;HPM_P2
2023/01/20 00:01:52;;;;;;;24.77;11.43;;;;;;;;;;5082411;28;20043;-82
2023/01/20 00:04:18;;;;;;;24.77;11.73;;;;;;;;;;5093588;28;20057;-82
2023/01/20 00:06:43;;;;;;;24.65;11.45;;;;;;;;;;5096457;28;20031;-82
2023/01/20 00:09:14;;;;;;;21.92;10.93;;;;;;;;;;5093268;28;20034;-82
2023/01/20 00:11:40;;;;;;;21.55;11.00;;;;;;;;;;5109348;27;20443;-82
2023/01/20 00:14:05;;;;;;;21.30;11.30;;;;;;;;;;5092262;28;20111;-82
2023/01/20 00:16:31;;;;;;;21.40;10.65;;;;;;;;;;5095228;28;20180;-82
2023/01/20 00:18:57;;;;;;;21.70;10.75;;;;;;;;;;5093057;28;20020;-82
2023/01/20 00:21:22;;;;;;;17.92;9.45;;;;;;;;;;5094013;28;20118;-82
2023/01/20 00:23:48;;;;;;;18.10;9.65;;;;;;;;;;5100081;28;20085;-82
2023/01/20 00:26:17;;;;;;;22.00;11.10;;;;;;;;;;5095589;28;21361;-83
2023/01/20 00:28:42;;;;;;;21.70;11.20;;;;;;;;;;5097202;28;20440;-82
2023/01/20 00:31:11;;;;;;;21.27;11.00;;;;;;;;;;5093990;28;20047;-83
2023/01/20 00:33:36;;;;;;;18.98;10.32;;;;;;;;;;5092573;28;20032;-82
2023/01/20 00:36:01;;;;;;;22.98;10.23;;;;;;;;;;5089043;28;20079;-82
2023/01/20 00:38:27;;;;;;;21.85;9.50;;;;;;;;;;5088148;28;20028;-82
2023/01/20 00:40:53;;;;;;;17.50;9.57;;;;;;;;;;5092864;28;20027;-82
2023/01/20 00:43:19;;;;;;;19.08;9.80;;;;;;;;;;5089025;28;20027;-82
2023/01/20 00:45:44;;;;;;;18.17;9.68;;;;;;;;;;5095030;28;20401;-82
2023/01/20 00:48:10;;;;;;;17.52;8.68;;;;;;;;;;5094758;28;20043;-82
2023/01/20 00:50:35;;;;;;;18.85;9.88;;;;;;;;;;5093782;28;20111;-82
2023/01/20 00:53:00;;;;;;;16.48;9.13;;;;;;;;;;5091577;28;20035;-82
2023/01/20 00:55:26;;;;;;;13.55;7.63;;;;;;;;;;5093293;28;20035;-82
2023/01/20 00:57:51;;;;;;;15.40;8.68;;;;;;;;;;5093529;28;20479;-82
2023/01/20 01:00:17;;;;;;;13.93;7.32;;;;;;;;;;5088829;28;20045;-82
2023/01/20 01:02:43;;;;;;;13.93;7.22;;;;;;;;;;5091724;28;20422;-82
2023/01/20 01:05:08;;;;;;;14.00;7.30;;;;;;;;;;5099105;28;20028;-82
2023/01/20 01:07:34;;;;;;;13.68;7.40;;;;;;;;;;5098174;28;20022;-82
2023/01/20 01:09:59;;;;;;;15.70;7.82;;;;;;;;;;5098445;28;20027;-82
2023/01/20 01:12:24;;;;;;;16.10;7.97;;;;;;;;;;5091494;28;20126;-82
2023/01/20 01:14:50;;;;;;;14.02;7.97;;;;;;;;;;5092430;28;20027;-82
2023/01/20 01:17:15;;;;;;;17.02;7.88;;;;;;;;;;5095243;28;20051;-82
2023/01/20 01:19:41;;;;;;;15.45;8.57;;;;;;;;;;5096808;28;20036;-82
2023/01/20 01:22:06;;;;;;;17.27;8.15;;;;;;;;;;5100208;28;20020;-82
2023/01/20 01:24:31;;;;;;;15.98;8.15;;;;;;;;;;5095285;28;20031;-82
2023/01/20 01:26:57;;;;;;;16.70;8.15;;;;;;;;;;5091689;28;20089;-82
2023/01/20 01:29:22;;;;;;;14.48;7.97;;;;;;;;;;5093098;28;20384;-82
2023/01/20 01:31:48;;;;;;;18.48;8.80;;;;;;;;;;5089065;28;20020;-82
2023/01/20 01:34:14;;;;;;;15.40;8.48;;;;;;;;;;5099555;28;20024;-82
2023/01/20 01:36:39;;;;;;;14.90;7.40;;;;;;;;;;5094483;28;20034;-82
2023/01/20 01:39:05;;;;;;;16.83;8.18;;;;;;;;;;5095077;28;20016;-82
2023/01/20 01:41:30;;;;;;;18.38;9.05;;;;;;;;;;5093184;28;20219;-82
2023/01/20 01:44:04;;;;;;;13.82;7.47;;;;;;;;;;5093036;28;20039;-82
2023/01/20 01:46:30;;;;;;;15.68;8.25;;;;;;;;;;5095909;28;20020;-82
2023/01/20 01:48:57;;;;;;;17.13;8.63;;;;;;;;;;5098483;28;20038;-82
2023/01/20 01:51:27;;;;;;;17.85;9.60;;;;;;;;;;5097971;28;20108;-82
2023/01/20 01:53:57;;;;;;;20.02;9.43;;;;;;;;;;5102822;27;20492;-82
2023/01/20 01:56:26;;;;;;;19.38;9.30;;;;;;;;;;5101563;28;20027;-82
2023/01/20 01:58:55;;;;;;;15.88;8.55;;;;;;;;;;5101992;28;20481;-82
2023/01/20 02:01:21;;;;;;;19.33;10.27;;;;;;;;;;5098117;28;20028;-82
2023/01/20 02:03:56;;;;;;;20.23;9.57;;;;;;;;;;5106660;28;20023;-82
2023/01/20 02:06:24;;;;;;;23.42;10.57;;;;;;;;;;5104282;28;20027;-82
2023/01/20 02:08:50;;;;;;;22.42;11.68;;;;;;;;;;5099142;28;20106;-82
2023/01/20 02:11:16;;;;;;;24.13;10.98;;;;;;;;;;5097475;28;20483;-82
2023/01/20 02:13:42;;;;;;;24.30;10.88;;;;;;;;;;5090485;28;20039;-82
2023/01/20 02:16:23;;;;;;;24.38;11.70;;;;;;;;;;5095297;28;20028;-82
2023/01/20 02:18:54;;;;;;;25.85;11.25;;;;;;;;;;5098413;28;20036;-82
2023/01/20 02:21:41;;;;;;;24.48;12.15;;;;;;;;;;5092354;28;20039;-82
2023/01/20 02:24:19;;;;;;;25.33;11.40;;;;;;;;;;5083664;28;20035;-82
2023/01/20 02:27:22;;;;;;;26.58;11.40;;;;;;;;;;5098815;28;20023;-82
2023/01/20 02:30:32;;;;;;;26.60;10.95;;;;;;;;;;5094339;28;20051;-82
2023/01/20 02:33:01;;;;;;;25.00;10.70;;;;;;;;;;5064202;28;20090;-82
2023/01/20 02:35:41;;;;;;;23.55;10.23;;;;;;;;;;5097933;28;20384;-82
2023/01/20 02:38:38;;;;;;;22.90;10.10;;;;;;;;;;5095939;28;20490;-82
2023/01/20 02:41:12;;;;;;;26.40;11.43;;;;;;;;;;5094767;28;20024;-82
2023/01/20 02:43:58;;;;;;;27.83;11.85;;;;;;;;;;5095780;28;20035;-82
2023/01/20 02:46:35;;;;;;;28.55;11.70;;;;;;;;;;5093272;28;20095;-82
2023/01/20 02:49:33;;;;;;;27.70;11.18;;;;;;;;;;5098131;28;20062;-82
2023/01/20 02:52:11;;;;;;;25.08;11.25;;;;;;;;;;5091350;28;20487;-82
2023/01/20 02:54:40;;;;;;;23.00;9.95;;;;;;;;;;5090743;28;20063;-82
2023/01/20 02:57:11;;;;;;;28.13;11.77;;;;;;;;;;5092785;28;20031;-82
2023/01/20 02:59:40;;;;;;;21.65;10.43;;;;;;;;;;5090125;28;20023;-82
2023/01/20 03:02:12;;;;;;;25.17;11.40;;;;;;;;;;5105745;27;20070;-82
2023/01/20 03:04:41;;;;;;;28.42;11.85;;;;;;;;;;5091161;28;20024;-82
2023/01/20 03:07:10;;;;;;;29.77;11.73;;;;;;;;;;5092971;28;20027;-82
2023/01/20 03:09:40;;;;;;;25.90;11.65;;;;;;;;;;5097168;28;20051;-82
2023/01/20 03:12:15;;;;;;;24.45;10.75;;;;;;;;;;5102874;27;20043;-82
2023/01/20 03:14:41;;;;;;;29.55;12.05;;;;;;;;;;5090461;28;20400;-82
2023/01/20 03:17:06;;;;;;;27.58;11.18;;;;;;;;;;5098688;28;20046;-82
2023/01/20 03:19:32;;;;;;;21.85;10.30;;;;;;;;;;5089589;28;21568;-82
2023/01/20 03:21:57;;;;;;;25.95;10.73;;;;;;;;;;5096706;28;20020;-82
2023/01/20 03:24:22;;;;;;;25.15;10.65;;;;;;;;;;5080408;28;20036;-82
2023/01/20 03:26:48;;;;;;;28.45;10.60;;;;;;;;;;5092956;28;20114;-82
2023/01/20 03:29:14;;;;;;;24.17;10.32;;;;;;;;;;5093835;28;20145;-82
2023/01/20 03:31:44;;;;;;;22.92;10.70;;;;;;;;;;5096517;28;20035;-82
2023/01/20 03:34:13;;;;;;;26.33;11.15;;;;;;;;;;5096675;28;20027;-82
2023/01/20 03:36:42;;;;;;;25.08;11.07;;;;;;;;;;5092666;28;20387;-82
2023/01/20 03:39:08;;;;;;;29.25;10.85;;;;;;;;;;5093279;28;20502;-82
2023/01/20 03:41:57;;;;;;;25.13;9.93;;;;;;;;;;5094011;28;20020;-82
2023/01/20 03:44:43;;;;;;;24.48;10.25;;;;;;;;;;5091896;28;20027;-82
2023/01/20 03:47:15;;;;;;;25.30;9.88;;;;;;;;;;5100300;28;20077;-82
2023/01/20 03:49:51;;;;;;;24.77;10.88;;;;;;;;;;5099732;28;20043;-82
2023/01/20 03:52:24;;;;;;;25.88;9.80;;;;;;;;;;5094395;28;20115;-82
2023/01/20 03:54:57;;;;;;;28.45;11.40;;;;;;;;;;5093438;28;20027;-82
2023/01/20 03:57:25;;;;;;;;;;;;;;;;;;5092489;28;20069;-82
2023/01/20 03:59:51;;;;;;;24.27;9.45;;;;;;;;;;5092004;28;19912;-82
2023/01/20 04:02:18;;;;;;;22.88;9.45;;;;;;;;;;5095985;28;20023;-82
2023/01/20 04:04:47;;;;;;;26.42;10.02;;;;;;;;;;5096174;28;20468;-82
2023/01/20 04:07:22;;;;;;;25.05;10.60;;;;;;;;;;5098611;28;20672;-82
2023/01/20 04:09:53;;;;;;;28.58;10.70;;;;;;;;;;5091220;28;20024;-82
2023/01/20 04:12:18;;;;;;;27.13;10.40;;;;;;;;;;5097444;28;20115;-82
2023/01/20 04:14:44;;;;;;;24.73;10.10;;;;;;;;;;5095504;28;20160;-82
2023/01/20 04:17:09;;;;;;;26.50;9.88;;;;;;;;;;5092607;28;20081;-82
2023/01/20 04:19:35;;;;;;;24.45;10.05;;;;;;;;;;5104228;28;20050;-82
2023/01/20 04:22:19;;;;;;;28.77;10.68;;;;;;;;;;5096981;28;20543;-82
2023/01/20 04:24:51;;;;;;;22.40;9.30;;;;;;;;;;5100584;28;20027;-82
2023/01/20 04:27:17;;;;;;;25.23;10.32;;;;;;;;;;5091988;28;20030;-82
2023/01/20 04:29:42;;;;;;;28.70;11.70;;;;;;;;;;5097899;28;20114;-82
2023/01/20 04:32:10;;;;;;;30.77;12.35;;;;;;;;;;5099717;28;20032;-82
2023/01/20 04:34:35;;;;;;;27.80;10.68;;;;;;;;;;5099165;28;20035;-82
2023/01/20 04:37:01;;;;;;;25.45;10.82;;;;;;;;;;5094900;28;20441;-82
2023/01/20 04:39:26;;;;;;;28.45;11.60;;;;;;;;;;5094780;28;20119;-82
2023/01/20 04:41:51;;;;;;;30.85;11.98;;;;;;;;;;5097059;28;20383;-82
2023/01/20 04:44:17;;;;;;;28.08;12.23;;;;;;;;;;5095123;28;20085;-82
2023/01/20 04:46:42;;;;;;;27.13;11.57;;;;;;;;;;5092392;28;20035;-82
2023/01/20 04:49:09;;;;;;;29.55;10.93;;;;;;;;;;5091231;28;20024;-82
2023/01/20 04:51:35;;;;;;;29.15;11.25;;;;;;;;;;5093557;28;20023;-82
2023/01/20 04:54:00;;;;;;;29.05;10.80;;;;;;;;;;5091971;28;20501;-82
2023/01/20 04:56:26;;;;;;;28.25;11.23;;;;;;;;;;5094544;28;20015;-82
2023/01/20 04:58:52;;;;;;;25.92;10.93;;;;;;;;;;5093165;28;20024;-82
2023/01/20 05:01:17;;;;;;;30.10;11.30;;;;;;;;;;5096582;28;20032;-82
2023/01/20 05:03:43;;;;;;;28.80;12.05;;;;;;;;;;5099823;28;20020;-82
2023/01/20 05:06:11;;;;;;;27.77;10.75;;;;;;;;;;5091685;28;20036;-82
2023/01/20 05:08:37;;;;;;;31.13;11.80;;;;;;;;;;5099995;28;20023;-82
2023/01/20 05:11:03;;;;;;;28.30;11.05;;;;;;;;;;5107579;27;20513;-82
2023/01/20 05:13:28;;;;;;;32.05;12.60;;;;;;;;;;5105953;28;20522;-82
2023/01/20 05:15:54;;;;;;;31.02;12.40;;;;;;;;;;5099318;28;20402;-82
2023/01/20 05:18:19;;;;;;;25.92;11.40;;;;;;;;;;5095756;28;20468;-82
2023/01/20 05:20:46;;;;;;;25.13;10.95;;;;;;;;;;5096825;28;20031;-82
2023/01/20 05:23:12;;;;;;;29.25;12.65;;;;;;;;;;5101139;28;20016;-82
2023/01/20 05:25:37;;;;;;;29.70;12.35;;;;;;;;;;5095850;28;20400;-82
2023/01/20 05:28:03;;;;;;;26.05;10.90;;;;;;;;;;5093591;28;20016;-82
2023/01/20 05:30:28;;;;;;;25.02;11.00;;;;;;;;;;5093327;28;20107;-82
2023/01/20 05:32:54;;;;;;;23.92;11.25;;;;;;;;;;5099161;28;20464;-82
2023/01/20 05:35:19;;;;;;;22.92;11.07;;;;;;;;;;5094441;28;20483;-82
2023/01/20 05:37:44;;;;;;;23.50;11.45;;;;;;;;;;5098026;28;20547;-82
2023/01/20 05:40:10;;;;;;;23.48;11.13;;;;;;;;;;5093133;27;20480;-82
2023/01/20 05:42:36;;;;;;;25.80;11.55;;;;;;;;;;5093639;28;20467;-82
2023/01/20 05:45:01;;;;;;;26.25;9.80;;;;;;;;;;5093297;28;20034;-82
2023/01/20 05:47:27;;;;;;;20.98;10.38;;;;;;;;;;5090525;28;20023;-82
2023/01/20 05:49:52;;;;;;;28.40;11.85;;;;;;;;;;5097630;28;20081;-82
2023/01/20 05:52:18;;;;;;;23.08;10.25;;;;;;;;;;5098992;28;20028;-82
2023/01/20 05:54:43;;;;;;;24.58;11.55;;;;;;;;;;5093434;28;20039;-82
2023/01/20 05:57:09;;;;;;;26.65;11.13;;;;;;;;;;5096582;28;20155;-82
2023/01/20 05:59:34;;;;;;;19.85;9.80;;;;;;;;;;5098885;28;20023;-82
2023/01/20 06:02:00;;;;;;;21.23;9.25;;;;;;;;;;5093054;28;20086;-82
2023/01/20 06:04:25;;;;;;;22.58;10.02;;;;;;;;;;5094796;28;20032;-82
2023/01/20 06:06:51;;;;;;;23.33;10.00;;;;;;;;;;5093431;28;20126;-82
2023/01/20 06:09:16;;;;;;;23.80;9.93;;;;;;;;;;5080248;28;21307;-82
2023/01/20 06:11:41;;;;;;;22.40;8.73;;;;;;;;;;5098446;27;20024;-82
2023/01/20 06:14:07;;;;;;;20.85;9.50;;;;;;;;;;5098341;28;20391;-82
2023/01/20 06:16:32;;;;;;;23.45;10.95;;;;;;;;;;5092770;28;20036;-82
2023/01/20 06:18:58;;;;;;;24.17;10.77;;;;;;;;;;5086154;28;20032;-82
2023/01/20 06:21:23;;;;;;;20.80;9.60;;;;;;;;;;5094574;28;20036;-82
2023/01/20 06:23:49;;;;;;;23.33;10.05;;;;;;;;;;5096285;28;20237;-82
2023/01/20 06:26:15;;;;;;;23.52;10.27;;;;;;;;;;5092067;28;20039;-82
2023/01/20 06:28:41;;;;;;;25.50;11.13;;;;;;;;;;5097627;28;20487;-82
2023/01/20 06:31:09;;;;;;;29.15;11.50;;;;;;;;;;5096766;28;20028;-82
2023/01/20 06:33:34;;;;;;;24.88;11.10;;;;;;;;;;5103162;28;20472;-82
2023/01/20 06:36:00;;;;;;;25.38;10.85;;;;;;;;;;5097693;28;20024;-82
2023/01/20 06:38:29;;;;;;;24.30;10.13;;;;;;;;;;5094641;28;20395;-82
2023/01/20 06:40:59;;;;;;;24.80;10.90;;;;;;;;;;5096327;28;20572;-82
2023/01/20 06:43:27;;;;;;;22.30;10.85;;;;;;;;;;5094111;28;20023;-82
2023/01/20 06:45:57;;;;;;;18.50;9.15;;;;;;;;;;5105199;28;20024;-82
2023/01/20 06:48:23;;;;;;;26.17;11.05;;;;;;;;;;5095980;28;20766;-83
2023/01/20 06:50:48;;;;;;;27.13;10.80;;;;;;;;;;5100097;28;20023;-82
2023/01/20 06:53:13;;;;;;;24.35;10.93;;;;;;;;;;5082150;28;20068;-82
2023/01/20 06:55:39;;;;;;;26.40;10.68;;;;;;;;;;5090718;28;20027;-82
2023/01/20 06:58:04;;;;;;;25.02;10.20;;;;;;;;;;5093078;28;20108;-83
2023/01/20 07:00:30;;;;;;;26.35;11.07;;;;;;;;;;5100746;28;20031;-82
2023/01/20 07:02:55;;;;;;;24.95;10.75;;;;;;;;;;5093384;28;20027;-82
2023/01/20 07:05:21;;;;;;;27.75;11.05;;;;;;;;;;5096068;28;20030;-82
2023/01/20 07:07:46;;;;;;;25.73;11.07;;;;;;;;;;5092190;28;20056;-82
2023/01/20 07:10:12;;;;;;;29.25;12.30;;;;;;;;;;5096837;28;20023;-82
2023/01/20 07:12:37;;;;;;;23.80;11.02;;;;;;;;;;5095261;28;20111;-83
2023/01/20 07:15:03;;;;;;;26.67;10.32;;;;;;;;;;5089155;28;20106;-82
2023/01/20 07:17:28;;;;;;;23.58;10.60;;;;;;;;;;5092919;28;20020;-82
2023/01/20 07:19:54;;;;;;;20.33;8.90;;;;;;;;;;5099071;28;20189;-82
2023/01/20 07:22:19;;;;;;;26.95;11.10;;;;;;;;;;5088593;28;20097;-82
2023/01/20 07:24:45;;;;;;;23.05;10.43;;;;;;;;;;5102718;28;20031;-81
2023/01/20 07:27:10;;;;;;;20.25;9.90;;;;;;;;;;5089249;28;20020;-82
2023/01/20 07:29:36;;;;;;;25.15;10.10;;;;;;;;;;5094636;28;20040;-82
2023/01/20 07:32:02;;;;;;;23.40;9.80;;;;;;;;;;5101295;28;20032;-82
2023/01/20 07:34:28;;;;;;;26.33;10.25;;;;;;;;;;5090187;28;20032;-81
2023/01/20 07:36:53;;;;;;;19.77;8.95;;;;;;;;;;5093807;28;20036;-82
2023/01/20 07:39:21;;;;;;;24.25;10.32;;;;;;;;;;5095999;28;20028;-82
2023/01/20 07:41:49;;;;;;;23.38;10.32;;;;;;;;;;5100789;28;20034;-81
2023/01/20 07:44:15;;;;;;;23.65;11.07;;;;;;;;;;5094558;28;20440;-81
2023/01/20 07:46:42;;;;;;;24.77;10.70;;;;;;;;;;5080230;28;20020;-82
2023/01/20 07:49:08;;;;;;;23.25;9.80;;;;;;;;;;5104806;28;21052;-82
2023/01/20 07:51:34;;;;;;;22.92;9.60;;;;;;;;;;5100962;28;20031;-82
2023/01/20 07:54:01;;;;;;;23.52;10.32;;;;;;;;;;5097360;28;20384;-82
2023/01/20 07:56:28;;;;;;;25.00;11.18;;;;;;;;;;5100393;28;20032;-82
2023/01/20 07:58:54;;;;;;;20.90;9.93;;;;;;;;;;5100854;28;20051;-82
2023/01/20 08:01:23;;;;;;;24.58;10.20;;;;;;;;;;5112019;28;20145;-82
2023/01/20 08:03:49;;;;;;;22.35;10.30;;;;;;;;;;5099623;28;20107;-82
2023/01/20 08:06:17;;;;;;;22.75;10.02;;;;;;;;;;5096107;28;20035;-82
2023/01/20 08:08:42;;;;;;;20.23;8.63;;;;;;;;;;5105197;28;20062;-82
2023/01/20 08:11:10;;;;;;;24.13;9.50;;;;;;;;;;5101410;27;20048;-82
2023/01/20 08:13:35;;;;;;;22.58;10.45;;;;;;;;;;5100178;28;20392;-82
2023/01/20 08:16:04;;;;;;;26.75;10.50;;;;;;;;;;5103105;28;20030;-82
2023/01/20 08:18:31;;;;;;;22.50;10.43;;;;;;;;;;5101897;28;20039;-82
2023/01/20 08:20:56;;;;;;;21.17;9.13;;;;;;;;;;5103974;28;20045;-82
2023/01/20 08:23:22;;;;;;;20.13;9.45;;;;;;;;;;5097625;28;20024;-82
2023/01/20 08:25:47;;;;;;;22.15;10.48;;;;;;;;;;5097347;28;20020;-82
2023/01/20 08:28:13;;;;;;;21.42;9.25;;;;;;;;;;5100071;28;20111;-82
2023/01/20 08:30:38;;;;;;;20.52;9.13;;;;;;;;;;5104034;28;20059;-82
2023/01/20 08:33:04;;;;;;;20.02;9.73;;;;;;;;;;5101973;28;20044;-82
2023/01/20 08:35:29;;;;;;;21.73;9.82;;;;;;;;;;5096759;28;20027;-82
2023/01/20 08:37:55;;;;;;;20.02;9.68;;;;;;;;;;5104115;28;20482;-82
2023/01/20 08:40:20;;;;;;;23.70;10.27;;;;;;;;;;5101976;28;20487;-82
2023/01/20 08:42:46;;;;;;;24.42;9.50;;;;;;;;;;5096629;28;20062;-82
2023/01/20 08:45:12;;;;;;;23.08;9.50;;;;;;;;;;5103422;28;20048;-82
2023/01/20 08:47:43;;;;;;;19.48;8.85;;;;;;;;;;5091106;28;20024;-82
2023/01/20 08:50:09;;;;;;;19.80;9.10;;;;;;;;;;5104078;28;20061;-82
2023/01/20 08:52:35;;;;;;;18.00;8.80;;;;;;;;;;5096318;28;20533;-82
2023/01/20 08:55:00;;;;;;;20.83;9.00;;;;;;;;;;5096030;28;20023;-82
2023/01/20 08:57:26;;;;;;;17.98;8.23;;;;;;;;;;5095139;28;20026;-82
2023/01/20 08:59:53;;;;;;;18.52;8.00;;;;;;;;;;5096447;28;20464;-82
2023/01/20 09:02:18;;;;;;;17.20;8.13;;;;;;;;;;5098257;28;20505;-82
2023/01/20 09:04:44;;;;;;;16.83;7.90;;;;;;;;;;5095704;28;20043;-82
2023/01/20 09:07:11;;;;;;;17.08;8.02;;;;;;;;;;5098454;28;20076;-82
2023/01/20 09:09:37;;;;;;;16.02;8.32;;;;;;;;;;5099621;28;20020;-82
2023/01/20 09:12:04;;;;;;;17.73;8.25;;;;;;;;;;5110288;27;20035;-82
2023/01/20 09:14:30;;;;;;;16.88;7.95;;;;;;;;;;5101913;28;20020;-82
2023/01/20 09:16:56;;;;;;;19.67;8.82;;;;;;;;;;5099359;27;20027;-82
2023/01/20 09:19:21;;;;;;;15.93;7.90;;;;;;;;;;5099313;28;20042;-82
2023/01/20 09:21:47;;;;;;;15.00;7.40;;;;;;;;;;5104013;28;20028;-82
2023/01/20 09:24:12;;;;;;;15.57;7.55;;;;;;;;;;5103607;28;20043;-82
2023/01/20 09:26:38;;;;;;;18.35;8.02;;;;;;;;;;5101198;28;20031;-82
2023/01/20 09:29:08;;;;;;;16.60;8.00;;;;;;;;;;5104306;28;20045;-82
2023/01/20 09:31:34;;;;;;;15.85;7.60;;;;;;;;;;5097863;28;20023;-82
2023/01/20 09:34:00;;;;;;;16.20;7.72;;;;;;;;;;5095351;28;20085;-82
2023/01/20 09:36:29;;;;;;;14.88;7.60;;;;;;;;;;5103085;28;20452;-81
2023/01/20 09:44:49;;;;;;;13.27;6.70;;;;;;;;;;5100808;28;20445;-82
2023/01/20 09:47:22;;;;;;;15.27;7.35;;;;;;;;;;5106779;28;20035;-82
2023/01/20 09:55:31;;;;;;;14.85;7.60;;;;;;;;;;5101187;28;20035;-82
2023/01/20 09:58:18;;;;;;;16.58;7.95;;;;;;;;;;5093142;28;20146;-82
2023/01/20 10:00:55;;;;;;;17.52;7.38;;;;;;;;;;5095085;28;20387;-82
2023/01/20 10:03:35;;;;;;;13.27;6.93;;;;;;;;;;5094995;28;20069;-82
2023/01/20 10:06:08;;;;;;;15.50;7.90;;;;;;;;;;5097828;28;20103;-82
2023/01/20 10:08:50;;;;;;;14.10;7.57;;;;;;;;;;5105737;28;20091;-82
2023/01/20 10:11:17;;;;;;;13.63;6.78;;;;;;;;;;5095072;28;20035;-82
2023/01/20 10:13:55;;;;;;;16.08;7.55;;;;;;;;;;5099263;28;20032;-82
2023/01/20 10:16:35;;;;;;;14.65;7.90;;;;;;;;;;5092785;28;20114;-82
2023/01/20 10:19:08;;;;;;;15.38;7.60;;;;;;;;;;5089938;28;20486;-82
2023/01/20 10:21:44;;;;;;;13.75;7.53;;;;;;;;;;5098788;28;20023;-82
2023/01/20 10:24:17;;;;;;;15.30;7.88;;;;;;;;;;5085816;28;20400;-82
2023/01/20 10:26:50;;;;;;;13.38;7.38;;;;;;;;;;5097898;28;20523;-82
2023/01/20 10:29:33;;;;;;;16.63;7.60;;;;;;;;;;5096165;28;20472;-82
2023/01/20 10:32:00;;;;;;;15.98;7.95;;;;;;;;;;5091811;28;20039;-82
2023/01/20 10:34:32;;;;;;;14.50;7.97;;;;;;;;;;5094512;28;20475;-82
2023/01/20 10:37:08;;;;;;;16.35;8.02;;;;;;;;;;5099151;28;20020;-82
2023/01/20 10:39:52;;;;;;;17.67;9.10;;;;;;;;;;5093246;28;20511;-82
2023/01/20 10:42:18;;;;;;;15.80;7.75;;;;;;;;;;5096435;28;20032;-82
2023/01/20 10:44:46;;;;;;;14.50;7.35;;;;;;;;;;5100562;28;20038;-82
2023/01/20 10:47:25;;;;;;;14.73;7.75;;;;;;;;;;5092242;28;20035;-82
2023/01/20 10:49:53;;;;;;;15.70;7.82;;;;;;;;;;5093366;28;20054;-82
2023/01/20 10:52:36;;;;;;;17.90;8.45;;;;;;;;;;5096896;28;20372;-82
2023/01/20 10:55:04;;;;;;;16.95;8.65;;;;;;;;;;5097477;28;20418;-82
2023/01/20 10:57:30;;;;;;;16.98;8.95;;;;;;;;;;5098835;28;20035;-82
2023/01/20 11:00:00;;;;;;;17.48;8.30;;;;;;;;;;5099130;28;20039;-82
2023/01/20 11:02:36;;;;;;;16.67;8.10;;;;;;;;;;5105136;28;20035;-82
2023/01/20 11:05:28;;;;;;;16.13;8.25;;;;;;;;;;5098814;28;20111;-82
2023/01/20 11:07:55;;;;;;;17.25;8.85;;;;;;;;;;5095343;28;20106;-83
2023/01/20 11:10:24;;;;;;;17.80;8.90;;;;;;;;;;5100776;28;20028;-82
2023/01/20 11:13:10;;;;;;;15.30;7.63;;;;;;;;;;5099825;28;20036;-82
2023/01/20 11:15:44;;;;;;;16.70;9.00;;;;;;;;;;5092399;28;20126;-82
2023/01/20 11:18:12;;;;;;;13.43;7.03;;;;;;;;;;5102867;28;20110;-82
2023/01/20 11:20:46;;;;;;;16.27;8.43;;;;;;;;;;5096507;28;20028;-82
2023/01/20 11:23:38;;;;;;;17.08;8.18;;;;;;;;;;5101918;28;20023;-82
2023/01/20 11:26:16;;;;;;;16.17;7.83;;;;;;;;;;5109731;28;20491;-82
2023/01/20 11:29:02;;;;;;;14.65;7.97;;;;;;;;;;5099052;28;20259;-82
2023/01/20 11:31:48;;;;;;;13.43;6.70;;;;;;;;;;5097728;28;20104;-82
2023/01/20 11:34:28;;;;;;;14.95;7.35;;;;;;;;;;5102626;28;20039;-83
2023/01/20 11:37:05;;;;;;;14.27;7.47;;;;;;;;;;5098750;28;20062;-82
2023/01/20 11:39:49;;;;;;;14.65;7.38;;;;;;;;;;5101053;28;20396;-82
2023/01/20 11:42:45;;;;;;;13.82;7.60;;;;;;;;;;5094438;28;20032;-82
2023/01/20 11:45:33;;;;;;;14.63;6.78;;;;;;;;;;5096666;28;20039;-82
2023/01/20 11:48:14;;;;;;;13.43;6.68;;;;;;;;;;5097790;28;20052;-82
2023/01/20 11:50:54;;;;;;;13.48;7.07;;;;;;;;;;5096844;28;20028;-82
2023/01/20 11:53:24;;;;;;;15.02;6.72;;;;;;;;;;5095044;28;20495;-82
2023/01/20 11:56:22;;;;;;;13.50;6.30;;;;;;;;;;5103450;28;20483;-82
2023/01/20 11:58:55;;;;;;;13.45;6.93;;;;;;;;;;5091674;28;20511;-82
2023/01/20 12:01:27;;;;;;;14.80;6.38;;;;;;;;;;5105119;28;20043;-82
2023/01/20 12:04:35;;;;;;;12.85;6.57;;;;;;;;;;5098181;28;20054;-82
2023/01/20 12:07:13;;;;;;;11.75;6.72;;;;;;;;;;5093650;28;20024;-82
2023/01/20 12:09:47;;;;;;;12.85;7.13;;;;;;;;;;5097382;28;20121;-82
2023/01/20 12:12:16;;;;;;;13.98;6.90;;;;;;;;;;5100393;27;20496;-82
2023/01/20 12:14:56;;;;;;;13.65;6.85;;;;;;;;;;5098695;28;20107;-82
2023/01/20 12:17:25;;;;;;;12.65;7.32;;;;;;;;;;5099734;28;20055;-82
2023/01/20 12:20:03;;;;;;;13.77;6.80;;;;;;;;;;5098987;28;20034;-83
2023/01/20 12:22:40;;;;;;;11.20;6.40;;;;;;;;;;5101480;28;20523;-82
2023/01/20 12:25:16;;;;;;;12.25;6.38;;;;;;;;;;5101573;28;20541;-82
2023/01/20 12:27:46;;;;;;;11.75;6.30;;;;;;;;;;5102804;28;20487;-82
2023/01/20 12:30:45;;;;;;;11.32;6.10;;;;;;;;;;5105663;28;20057;-82
2023/01/20 12:33:41;;;;;;;13.00;6.68;;;;;;;;;;5095332;28;20036;-82
2023/01/20 12:36:25;;;;;;;13.63;6.60;;;;;;;;;;5101486;28;20451;-82
2023/01/20 12:39:14;;;;;;;11.45;5.80;;;;;;;;;;5100591;28;20074;-82
2023/01/20 12:41:46;;;;;;;11.00;6.53;;;;;;;;;;5103737;28;20032;-82
2023/01/20 12:44:25;;;;;;;11.23;6.45;;;;;;;;;;5092226;28;20575;-82
2023/01/20 12:47:06;;;;;;;13.32;7.40;;;;;;;;;;5103151;28;20063;-82
2023/01/20 12:49:51;;;;;;;13.13;7.13;;;;;;;;;;5096820;28;20376;-82
2023/01/20 12:52:16;;;;;;;12.02;6.63;;;;;;;;;;5089571;28;20025;-82
2023/01/20 12:54:44;;;;;;;11.45;6.35;;;;;;;;;;5096638;28;20034;-82
2023/01/20 12:57:49;;;;;;;12.73;6.70;;;;;;;;;;5101323;28;20422;-82
2023/01/20 13:00:35;;;;;;;11.70;6.35;;;;;;;;;;5039490;28;20043;-82
2023/01/20 13:03:16;;;;;;;12.90;6.22;;;;;;;;;;5108402;28;20023;-83
2023/01/20 13:05:44;;;;;;;11.38;6.30;;;;;;;;;;5112317;28;20073;-82
2023/01/20 13:08:22;;;;;;;12.27;6.57;;;;;;;;;;5103378;28;20404;-82
2023/01/20 13:11:02;;;;;;;11.35;6.40;;;;;;;;;;5096463;27;20032;-82
2023/01/20 13:13:54;;;;;;;12.48;6.82;;;;;;;;;;5100558;28;20051;-82
2023/01/20 13:16:30;;;;;;;11.85;6.15;;;;;;;;;;5100630;28;20019;-82
2023/01/20 13:19:27;;;;;;;12.27;6.68;;;;;;;;;;5096892;28;20472;-82
2023/01/20 13:21:53;;;;;;;10.20;5.93;;;;;;;;;;5097938;28;20031;-82
2023/01/20 13:24:28;;;;;;;11.55;6.20;;;;;;;;;;5096931;27;20491;-82
2023/01/20 13:26:55;;;;;;;10.60;6.18;;;;;;;;;;5104957;28;20016;-82
2023/01/20 13:29:40;;;;;;;11.40;6.50;;;;;;;;;;5093804;28;20602;-82
2023/01/20 13:32:27;;;;;;;10.60;5.97;;;;;;;;;;5092656;27;20024;-82
2023/01/20 13:34:53;;;;;;;10.48;5.75;;;;;;;;;;5095228;28;20032;-82
2023/01/20 13:37:25;;;;;;;9.40;4.78;;;;;;;;;;5094625;28;20045;-82
2023/01/20 13:39:53;;;;;;;9.75;5.22;;;;;;;;;;5088124;28;20027;-83
2023/01/20 13:42:36;;;;;;;10.00;5.82;;;;;;;;;;5092170;28;20036;-82
2023/01/20 13:45:10;;;;;;;;;;;;;;;;;;5095294;28;20039;-82
2023/01/20 13:47:51;;;;;;;11.65;5.50;;;;;;;;;;5095112;28;19915;-82
2023/01/20 13:50:28;;;;;;;11.80;5.43;;;;;;;;;;5099389;28;20036;-82
2023/01/20 13:52:56;;;;;;;11.38;5.90;;;;;;;;;;5095109;28;20418;-82
2023/01/20 13:55:42;;;;;;;10.45;5.82;;;;;;;;;;5092927;28;20035;-82
2023/01/20 13:58:15;;;;;;;8.52;5.25;;;;;;;;;;5096854;28;20031;-82
2023/01/20 14:00:42;;;;;;;11.98;5.97;;;;;;;;;;5093585;28;20538;-82
2023/01/20 14:03:21;;;;;;;11.25;6.13;;;;;;;;;;5092967;28;20031;-82
2023/01/20 14:05:52;;;;;;;13.35;6.97;;;;;;;;;;5092270;28;20562;-82
2023/01/20 14:08:19;;;;;;;11.20;5.88;;;;;;;;;;5097716;28;20056;-82
2023/01/20 14:10:45;;;;;;;10.90;6.20;;;;;;;;;;5098051;27;20031;-82
2023/01/20 14:13:17;;;;;;;10.40;5.78;;;;;;;;;;5098263;28;20692;-82
2023/01/20 14:15:51;;;;;;;9.73;5.53;;;;;;;;;;5099770;28;20035;-82
2023/01/20 14:18:19;;;;;;;11.43;6.03;;;;;;;;;;5094053;28;20280;-82
2023/01/20 14:21:03;;;;;;;9.70;5.38;;;;;;;;;;5097745;27;20038;-82
2023/01/20 14:23:36;;;;;;;11.32;6.22;;;;;;;;;;5099648;28;20106;-82
2023/01/20 14:26:11;;;;;;;11.13;5.40;;;;;;;;;;5097991;28;20043;-82
2023/01/20 14:28:47;;;;;;;9.65;5.38;;;;;;;;;;5091761;28;20039;-82
2023/01/20 14:31:15;;;;;;;12.27;5.72;;;;;;;;;;5103473;28;20050;-82
2023/01/20 14:34:02;;;;;;;11.63;5.32;;;;;;;;;;5091582;28;20048;-82
2023/01/20 14:36:32;;;;;;;9.18;4.93;;;;;;;;;;5090083;28;20223;-82
2023/01/20 14:39:00;;;;;;;11.63;6.13;;;;;;;;;;5097475;28;20549;-82
2023/01/20 14:41:44;;;;;;;9.68;5.47;;;;;;;;;;5089865;28;20516;-82
2023/01/20 14:44:32;;;;;;;9.95;5.07;;;;;;;;;;5092545;28;20503;-82
2023/01/20 14:46:59;;;;;;;13.05;5.68;;;;;;;;;;5095979;28;20027;-82
2023/01/20 14:49:34;;;;;;;8.15;4.53;;;;;;;;;;5100918;28;20024;-82
2023/01/20 14:52:00;;;;;;;9.80;5.78;;;;;;;;;;5095470;28;20491;-82
2023/01/20 14:54:35;;;;;;;9.48;5.25;;;;;;;;;;5095328;28;20066;-82
2023/01/20 14:57:20;;;;;;;9.77;5.05;;;;;;;;;;5091932;28;20528;-82
2023/01/20 14:59:47;;;;;;;11.60;6.20;;;;;;;;;;5093532;28;20420;-82